sensor_id;sensor_type;location;lat;lon;timestamp;P1;durP1;ratioP1;P2;durP2;ratioP2
59189;SDS011;50749;51.636;4.948;2023-04-10T00:01:13;3.67;;;2.00;;
59189;SDS011;50749;51.636;4.948;2023-04-10T00:03:39;3.35;;;2.35;;
59189;SDS011;50749;51.636;4.948;2023-04-10T00:06:05;3.45;;;2.58;;
59189;SDS011;50749;51.636;4.948;2023-04-10T00:08:31;3.35;;;2.17;;
59189;SDS011;50749;51.636;4.948;2023-04-10T00:10:57;3.08;;;2.45;;
59189;SDS011;50749;51.636;4.948;2023-04-10T00:13:23;3.42;;;2.20;;
59189;SDS011;50749;51.636;4.948;2023-04-10T00:15:49;3.33;;;2.40;;
59189;SDS011;50749;51.636;4.948;2023-04-10T00:18:15;4.03;;;2.35;;
59189;SDS011;50749;51.636;4.948;2023-04-10T00:20:41;3.13;;;2.38;;
59189;SDS011;50749;51.636;4.948;2023-04-10T00:23:07;3.22;;;2.30;;
59189;SDS011;50749;51.636;4.948;2023-04-10T00:25:33;3.13;;;2.25;;
59189;SDS011;50749;51.636;4.948;2023-04-10T00:27:59;3.95;;;2.25;;
59189;SDS011;50749;51.636;4.948;2023-04-10T00:30:25;3.17;;;2.50;;
59189;SDS011;50749;51.636;4.948;2023-04-10T00:32:51;3.80;;;2.45;;
59189;SDS011;50749;51.636;4.948;2023-04-10T00:35:17;4.68;;;2.40;;
59189;SDS011;50749;51.636;4.948;2023-04-10T00:37:42;3.22;;;2.40;;
59189;SDS011;50749;51.636;4.948;2023-04-10T00:40:08;4.28;;;2.92;;
59189;SDS011;50749;51.636;4.948;2023-04-10T00:42:34;3.45;;;2.08;;
59189;SDS011;50749;51.636;4.948;2023-04-10T00:45:01;3.20;;;2.28;;
59189;SDS011;50749;51.636;4.948;2023-04-10T00:47:26;3.28;;;2.10;;
59189;SDS011;50749;51.636;4.948;2023-04-10T00:49:53;3.45;;;2.10;;
59189;SDS011;50749;51.636;4.948;2023-04-10T00:52:19;3.10;;;2.30;;
59189;SDS011;50749;51.636;4.948;2023-04-10T00:54:45;4.10;;;2.03;;
59189;SDS011;50749;51.636;4.948;2023-04-10T00:57:11;3.78;;;2.45;;
59189;SDS011;50749;51.636;4.948;2023-04-10T00:59:37;3.55;;;2.10;;
59189;SDS011;50749;51.636;4.948;2023-04-10T01:02:03;3.50;;;2.20;;
59189;SDS011;50749;51.636;4.948;2023-04-10T01:04:29;3.30;;;1.92;;
59189;SDS011;50749;51.636;4.948;2023-04-10T01:09:43;3.45;;;2.20;;
59189;SDS011;50749;51.636;4.948;2023-04-10T01:15:17;3.90;;;1.80;;
59189;SDS011;50749;51.636;4.948;2023-04-10T01:20:24;3.25;;;1.88;;
59189;SDS011;50749;51.636;4.948;2023-04-10T01:25:55;2.70;;;1.92;;
59189;SDS011;50749;51.636;4.948;2023-04-10T01:30:56;2.88;;;1.90;;
59189;SDS011;50749;51.636;4.948;2023-04-10T01:33:25;3.55;;;2.00;;
59189;SDS011;50749;51.636;4.948;2023-04-10T01:35:57;3.15;;;2.13;;
59189;SDS011;50749;51.636;4.948;2023-04-10T01:38:27;2.70;;;1.95;;
59189;SDS011;50749;51.636;4.948;2023-04-10T01:40:55;3.42;;;1.98;;
59189;SDS011;50749;51.636;4.948;2023-04-10T01:43:23;3.25;;;2.00;;
59189;SDS011;50749;51.636;4.948;2023-04-10T01:45:51;2.53;;;1.50;;
59189;SDS011;50749;51.636;4.948;2023-04-10T01:48:17;3.83;;;2.60;;
59189;SDS011;50749;51.636;4.948;2023-04-10T01:50:45;3.05;;;2.10;;
59189;SDS011;50749;51.636;4.948;2023-04-10T01:53:12;3.35;;;2.15;;
59189;SDS011;50749;51.636;4.948;2023-04-10T01:55:38;2.88;;;2.05;;
59189;SDS011;50749;51.636;4.948;2023-04-10T01:58:06;3.47;;;2.22;;
59189;SDS011;50749;51.636;4.948;2023-04-10T02:00:36;3.03;;;2.05;;
59189;SDS011;50749;51.636;4.948;2023-04-10T02:03:07;2.45;;;2.00;;
59189;SDS011;50749;51.636;4.948;2023-04-10T02:05:45;3.65;;;1.90;;
59189;SDS011;50749;51.636;4.948;2023-04-10T02:08:26;3.33;;;1.90;;
59189;SDS011;50749;51.636;4.948;2023-04-10T02:13:49;2.50;;;2.03;;
59189;SDS011;50749;51.636;4.948;2023-04-10T02:16:17;2.70;;;1.73;;
59189;SDS011;50749;51.636;4.948;2023-04-10T02:18:46;2.45;;;1.63;;
59189;SDS011;50749;51.636;4.948;2023-04-10T02:21:14;2.72;;;1.77;;
59189;SDS011;50749;51.636;4.948;2023-04-10T02:23:40;4.05;;;2.40;;
59189;SDS011;50749;51.636;4.948;2023-04-10T02:26:07;3.92;;;2.03;;
59189;SDS011;50749;51.636;4.948;2023-04-10T02:28:33;2.55;;;1.90;;
59189;SDS011;50749;51.636;4.948;2023-04-10T02:31:02;2.40;;;1.33;;
59189;SDS011;50749;51.636;4.948;2023-04-10T02:33:27;2.92;;;1.90;;
59189;SDS011;50749;51.636;4.948;2023-04-10T02:35:53;2.85;;;1.90;;
59189;SDS011;50749;51.636;4.948;2023-04-10T02:38:19;2.78;;;1.75;;
59189;SDS011;50749;51.636;4.948;2023-04-10T02:40:45;3.10;;;2.10;;
59189;SDS011;50749;51.636;4.948;2023-04-10T02:43:11;3.05;;;2.00;;
59189;SDS011;50749;51.636;4.948;2023-04-10T02:45:37;2.55;;;1.80;;
59189;SDS011;50749;51.636;4.948;2023-04-10T02:48:05;2.53;;;1.98;;
59189;SDS011;50749;51.636;4.948;2023-04-10T02:50:32;2.60;;;1.80;;
59189;SDS011;50749;51.636;4.948;2023-04-10T02:52:57;2.80;;;2.10;;
59189;SDS011;50749;51.636;4.948;2023-04-10T02:55:23;2.28;;;1.63;;
59189;SDS011;50749;51.636;4.948;2023-04-10T02:57:49;3.05;;;1.80;;
59189;SDS011;50749;51.636;4.948;2023-04-10T03:00:16;2.10;;;1.55;;
59189;SDS011;50749;51.636;4.948;2023-04-10T03:02:43;2.85;;;1.88;;
59189;SDS011;50749;51.636;4.948;2023-04-10T03:05:10;2.80;;;2.13;;
59189;SDS011;50749;51.636;4.948;2023-04-10T03:07:36;2.72;;;2.00;;
59189;SDS011;50749;51.636;4.948;2023-04-10T03:10:02;2.40;;;1.73;;
59189;SDS011;50749;51.636;4.948;2023-04-10T03:12:27;2.97;;;2.05;;
59189;SDS011;50749;51.636;4.948;2023-04-10T03:14:53;2.60;;;2.03;;
59189;SDS011;50749;51.636;4.948;2023-04-10T03:17:19;2.80;;;1.75;;
59189;SDS011;50749;51.636;4.948;2023-04-10T03:19:45;4.60;;;1.90;;
59189;SDS011;50749;51.636;4.948;2023-04-10T03:22:11;2.58;;;1.80;;
59189;SDS011;50749;51.636;4.948;2023-04-10T03:24:37;3.72;;;2.15;;
59189;SDS011;50749;51.636;4.948;2023-04-10T03:27:04;2.80;;;1.70;;
59189;SDS011;50749;51.636;4.948;2023-04-10T03:29:30;2.95;;;1.60;;
59189;SDS011;50749;51.636;4.948;2023-04-10T03:31:55;3.20;;;1.95;;
59189;SDS011;50749;51.636;4.948;2023-04-10T03:34:21;2.60;;;1.98;;
59189;SDS011;50749;51.636;4.948;2023-04-10T03:36:47;2.22;;;1.73;;
59189;SDS011;50749;51.636;4.948;2023-04-10T03:39:13;3.33;;;1.88;;
59189;SDS011;50749;51.636;4.948;2023-04-10T03:41:39;2.40;;;2.03;;
59189;SDS011;50749;51.636;4.948;2023-04-10T03:44:05;2.63;;;1.60;;
59189;SDS011;50749;51.636;4.948;2023-04-10T03:46:30;2.28;;;1.60;;
59189;SDS011;50749;51.636;4.948;2023-04-10T03:48:56;2.33;;;1.60;;
59189;SDS011;50749;51.636;4.948;2023-04-10T03:51:22;2.33;;;1.50;;
59189;SDS011;50749;51.636;4.948;2023-04-10T03:53:49;2.40;;;1.60;;
59189;SDS011;50749;51.636;4.948;2023-04-10T03:56:15;2.25;;;1.60;;
59189;SDS011;50749;51.636;4.948;2023-04-10T03:58:41;2.33;;;1.67;;
59189;SDS011;50749;51.636;4.948;2023-04-10T04:01:07;2.35;;;1.35;;
59189;SDS011;50749;51.636;4.948;2023-04-10T04:03:33;2.42;;;1.40;;
59189;SDS011;50749;51.636;4.948;2023-04-10T04:05:59;2.08;;;1.60;;
59189;SDS011;50749;51.636;4.948;2023-04-10T04:08:25;2.15;;;1.38;;
59189;SDS011;50749;51.636;4.948;2023-04-10T04:10:50;1.65;;;1.27;;
59189;SDS011;50749;51.636;4.948;2023-04-10T04:13:16;2.65;;;1.75;;
59189;SDS011;50749;51.636;4.948;2023-04-10T04:15:42;2.72;;;1.63;;
59189;SDS011;50749;51.636;4.948;2023-04-10T04:18:08;2.20;;;1.45;;
59189;SDS011;50749;51.636;4.948;2023-04-10T04:20:33;2.53;;;1.50;;
59189;SDS011;50749;51.636;4.948;2023-04-10T04:22:59;2.13;;;1.50;;
59189;SDS011;50749;51.636;4.948;2023-04-10T04:25:25;2.42;;;1.20;;
59189;SDS011;50749;51.636;4.948;2023-04-10T04:27:51;2.58;;;1.77;;
59189;SDS011;50749;51.636;4.948;2023-04-10T04:30:17;2.20;;;1.45;;
59189;SDS011;50749;51.636;4.948;2023-04-10T04:32:43;2.15;;;1.35;;
59189;SDS011;50749;51.636;4.948;2023-04-10T04:35:09;2.58;;;1.80;;
59189;SDS011;50749;51.636;4.948;2023-04-10T04:37:35;2.50;;;1.67;;
59189;SDS011;50749;51.636;4.948;2023-04-10T04:40:00;2.38;;;1.60;;
59189;SDS011;50749;51.636;4.948;2023-04-10T04:42:27;2.28;;;1.58;;
59189;SDS011;50749;51.636;4.948;2023-04-10T04:44:52;2.55;;;1.52;;
59189;SDS011;50749;51.636;4.948;2023-04-10T04:47:18;2.88;;;1.60;;
59189;SDS011;50749;51.636;4.948;2023-04-10T04:49:44;2.90;;;1.75;;
59189;SDS011;50749;51.636;4.948;2023-04-10T04:52:10;1.55;;;1.27;;
59189;SDS011;50749;51.636;4.948;2023-04-10T04:54:36;1.98;;;1.42;;
59189;SDS011;50749;51.636;4.948;2023-04-10T04:57:02;1.73;;;1.15;;
59189;SDS011;50749;51.636;4.948;2023-04-10T04:59:28;2.55;;;1.60;;
59189;SDS011;50749;51.636;4.948;2023-04-10T05:01:54;2.03;;;1.30;;
59189;SDS011;50749;51.636;4.948;2023-04-10T05:04:19;1.80;;;1.50;;
59189;SDS011;50749;51.636;4.948;2023-04-10T05:06:45;3.08;;;1.73;;
59189;SDS011;50749;51.636;4.948;2023-04-10T05:09:12;1.98;;;1.27;;
59189;SDS011;50749;51.636;4.948;2023-04-10T05:11:38;2.92;;;1.30;;
59189;SDS011;50749;51.636;4.948;2023-04-10T05:14:04;2.10;;;1.50;;
59189;SDS011;50749;51.636;4.948;2023-04-10T05:16:30;1.92;;;1.40;;
59189;SDS011;50749;51.636;4.948;2023-04-10T05:18:56;2.42;;;1.27;;
59189;SDS011;50749;51.636;4.948;2023-04-10T05:21:22;2.20;;;1.30;;
59189;SDS011;50749;51.636;4.948;2023-04-10T05:23:47;2.13;;;1.50;;
59189;SDS011;50749;51.636;4.948;2023-04-10T05:26:13;2.13;;;1.60;;
59189;SDS011;50749;51.636;4.948;2023-04-10T05:28:39;2.30;;;1.50;;
59189;SDS011;50749;51.636;4.948;2023-04-10T05:31:05;2.28;;;1.40;;
59189;SDS011;50749;51.636;4.948;2023-04-10T05:33:31;2.10;;;1.50;;
59189;SDS011;50749;51.636;4.948;2023-04-10T05:35:57;2.35;;;1.42;;
59189;SDS011;50749;51.636;4.948;2023-04-10T05:38:22;2.47;;;1.42;;
59189;SDS011;50749;51.636;4.948;2023-04-10T05:40:49;2.55;;;1.50;;
59189;SDS011;50749;51.636;4.948;2023-04-10T05:43:15;2.70;;;1.52;;
59189;SDS011;50749;51.636;4.948;2023-04-10T05:45:44;2.53;;;1.50;;
59189;SDS011;50749;51.636;4.948;2023-04-10T05:48:09;2.20;;;1.42;;
59189;SDS011;50749;51.636;4.948;2023-04-10T05:50:35;1.65;;;1.17;;
59189;SDS011;50749;51.636;4.948;2023-04-10T05:53:01;2.00;;;1.25;;
59189;SDS011;50749;51.636;4.948;2023-04-10T05:55:29;2.17;;;1.42;;
59189;SDS011;50749;51.636;4.948;2023-04-10T05:57:55;2.80;;;1.60;;
59189;SDS011;50749;51.636;4.948;2023-04-10T06:00:21;2.00;;;1.30;;
59189;SDS011;50749;51.636;4.948;2023-04-10T06:02:47;2.00;;;1.60;;
59189;SDS011;50749;51.636;4.948;2023-04-10T06:05:13;2.80;;;1.35;;
59189;SDS011;50749;51.636;4.948;2023-04-10T06:07:38;2.63;;;1.60;;
59189;SDS011;50749;51.636;4.948;2023-04-10T06:10:04;2.13;;;1.60;;
59189;SDS011;50749;51.636;4.948;2023-04-10T06:12:31;2.78;;;1.55;;
59189;SDS011;50749;51.636;4.948;2023-04-10T06:14:57;1.80;;;1.10;;
59189;SDS011;50749;51.636;4.948;2023-04-10T06:17:22;1.88;;;1.40;;
59189;SDS011;50749;51.636;4.948;2023-04-10T06:19:50;2.10;;;1.20;;
59189;SDS011;50749;51.636;4.948;2023-04-10T06:22:15;3.15;;;1.33;;
59189;SDS011;50749;51.636;4.948;2023-04-10T06:24:41;1.77;;;1.20;;
59189;SDS011;50749;51.636;4.948;2023-04-10T06:27:07;1.80;;;1.35;;
59189;SDS011;50749;51.636;4.948;2023-04-10T06:29:33;1.95;;;1.35;;
59189;SDS011;50749;51.636;4.948;2023-04-10T06:31:59;2.15;;;1.55;;
59189;SDS011;50749;51.636;4.948;2023-04-10T06:34:25;1.80;;;1.15;;
59189;SDS011;50749;51.636;4.948;2023-04-10T06:36:51;2.70;;;1.60;;
59189;SDS011;50749;51.636;4.948;2023-04-10T06:39:18;2.20;;;1.30;;
59189;SDS011;50749;51.636;4.948;2023-04-10T06:41:43;2.13;;;1.60;;
59189;SDS011;50749;51.636;4.948;2023-04-10T06:44:10;2.53;;;1.80;;
59189;SDS011;50749;51.636;4.948;2023-04-10T06:46:35;2.22;;;1.83;;
59189;SDS011;50749;51.636;4.948;2023-04-10T06:49:01;3.88;;;1.35;;
59189;SDS011;50749;51.636;4.948;2023-04-10T06:51:27;2.42;;;1.60;;
59189;SDS011;50749;51.636;4.948;2023-04-10T06:53:55;3.45;;;1.73;;
59189;SDS011;50749;51.636;4.948;2023-04-10T06:56:21;2.95;;;1.90;;
59189;SDS011;50749;51.636;4.948;2023-04-10T06:58:47;3.42;;;1.85;;
59189;SDS011;50749;51.636;4.948;2023-04-10T07:01:12;2.70;;;1.85;;
59189;SDS011;50749;51.636;4.948;2023-04-10T07:03:38;3.83;;;1.60;;
59189;SDS011;50749;51.636;4.948;2023-04-10T07:06:04;2.70;;;1.60;;
59189;SDS011;50749;51.636;4.948;2023-04-10T07:08:30;3.15;;;1.95;;
59189;SDS011;50749;51.636;4.948;2023-04-10T07:10:56;2.70;;;1.75;;
59189;SDS011;50749;51.636;4.948;2023-04-10T07:13:22;3.00;;;1.90;;
59189;SDS011;50749;51.636;4.948;2023-04-10T07:15:48;4.38;;;1.65;;
59189;SDS011;50749;51.636;4.948;2023-04-10T07:18:14;2.72;;;1.90;;
59189;SDS011;50749;51.636;4.948;2023-04-10T07:20:39;2.78;;;1.90;;
59189;SDS011;50749;51.636;4.948;2023-04-10T07:23:05;3.25;;;2.13;;
59189;SDS011;50749;51.636;4.948;2023-04-10T07:25:31;2.30;;;1.75;;
59189;SDS011;50749;51.636;4.948;2023-04-10T07:27:58;3.25;;;2.05;;
59189;SDS011;50749;51.636;4.948;2023-04-10T07:30:23;3.33;;;2.10;;
59189;SDS011;50749;51.636;4.948;2023-04-10T07:32:50;2.60;;;1.65;;
59189;SDS011;50749;51.636;4.948;2023-04-10T07:35:15;3.22;;;1.88;;
59189;SDS011;50749;51.636;4.948;2023-04-10T07:37:41;3.33;;;2.00;;
59189;SDS011;50749;51.636;4.948;2023-04-10T07:40:08;2.85;;;1.55;;
59189;SDS011;50749;51.636;4.948;2023-04-10T07:42:35;2.75;;;1.80;;
59189;SDS011;50749;51.636;4.948;2023-04-10T07:45:00;2.33;;;1.50;;
59189;SDS011;50749;51.636;4.948;2023-04-10T07:47:27;3.33;;;1.80;;
59189;SDS011;50749;51.636;4.948;2023-04-10T07:49:52;3.00;;;1.60;;
59189;SDS011;50749;51.636;4.948;2023-04-10T07:52:18;3.78;;;1.80;;
59189;SDS011;50749;51.636;4.948;2023-04-10T07:54:44;3.03;;;1.83;;
59189;SDS011;50749;51.636;4.948;2023-04-10T07:57:10;3.38;;;1.95;;
59189;SDS011;50749;51.636;4.948;2023-04-10T07:59:36;2.97;;;1.95;;
59189;SDS011;50749;51.636;4.948;2023-04-10T08:02:02;2.95;;;1.77;;
59189;SDS011;50749;51.636;4.948;2023-04-10T08:04:28;4.00;;;2.05;;
59189;SDS011;50749;51.636;4.948;2023-04-10T08:06:54;3.47;;;2.10;;
59189;SDS011;50749;51.636;4.948;2023-04-10T08:09:20;4.35;;;2.25;;
59189;SDS011;50749;51.636;4.948;2023-04-10T08:11:46;4.18;;;2.10;;
59189;SDS011;50749;51.636;4.948;2023-04-10T08:14:12;2.80;;;2.22;;
59189;SDS011;50749;51.636;4.948;2023-04-10T08:16:38;3.30;;;2.30;;
59189;SDS011;50749;51.636;4.948;2023-04-10T08:19:03;2.75;;;1.90;;
59189;SDS011;50749;51.636;4.948;2023-04-10T08:21:30;3.40;;;2.00;;
59189;SDS011;50749;51.636;4.948;2023-04-10T08:23:56;2.67;;;2.00;;
59189;SDS011;50749;51.636;4.948;2023-04-10T08:26:23;5.78;;;2.65;;
59189;SDS011;50749;51.636;4.948;2023-04-10T08:28:51;3.70;;;2.60;;
59189;SDS011;50749;51.636;4.948;2023-04-10T08:31:18;4.50;;;2.28;;
59189;SDS011;50749;51.636;4.948;2023-04-10T08:33:45;2.63;;;2.10;;
59189;SDS011;50749;51.636;4.948;2023-04-10T08:36:11;2.55;;;1.83;;
59189;SDS011;50749;51.636;4.948;2023-04-10T08:38:40;3.00;;;2.00;;
59189;SDS011;50749;51.636;4.948;2023-04-10T08:41:08;7.22;;;2.40;;
59189;SDS011;50749;51.636;4.948;2023-04-10T08:43:38;2.85;;;2.20;;
59189;SDS011;50749;51.636;4.948;2023-04-10T08:46:05;6.28;;;2.55;;
59189;SDS011;50749;51.636;4.948;2023-04-10T08:48:37;3.67;;;2.40;;
59189;SDS011;50749;51.636;4.948;2023-04-10T08:51:04;4.97;;;2.53;;
59189;SDS011;50749;51.636;4.948;2023-04-10T08:53:34;4.25;;;2.30;;
59189;SDS011;50749;51.636;4.948;2023-04-10T08:56:08;4.55;;;2.17;;
59189;SDS011;50749;51.636;4.948;2023-04-10T08:58:38;3.85;;;2.30;;
59189;SDS011;50749;51.636;4.948;2023-04-10T09:01:06;5.70;;;2.63;;
59189;SDS011;50749;51.636;4.948;2023-04-10T09:03:32;4.72;;;2.10;;
59189;SDS011;50749;51.636;4.948;2023-04-10T09:06:00;3.30;;;2.60;;
59189;SDS011;50749;51.636;4.948;2023-04-10T09:08:28;4.57;;;2.50;;
59189;SDS011;50749;51.636;4.948;2023-04-10T09:10:54;7.20;;;2.50;;
59189;SDS011;50749;51.636;4.948;2023-04-10T09:13:36;6.22;;;2.92;;
59189;SDS011;50749;51.636;4.948;2023-04-10T09:16:03;4.90;;;2.83;;
59189;SDS011;50749;51.636;4.948;2023-04-10T09:18:39;5.15;;;2.78;;
59189;SDS011;50749;51.636;4.948;2023-04-10T09:21:13;4.45;;;2.97;;
59189;SDS011;50749;51.636;4.948;2023-04-10T09:23:41;6.82;;;3.35;;
59189;SDS011;50749;51.636;4.948;2023-04-10T09:26:21;4.90;;;3.13;;
59189;SDS011;50749;51.636;4.948;2023-04-10T09:28:55;5.32;;;3.40;;
59189;SDS011;50749;51.636;4.948;2023-04-10T09:31:28;5.00;;;3.30;;
59189;SDS011;50749;51.636;4.948;2023-04-10T09:36:33;5.47;;;3.30;;
59189;SDS011;50749;51.636;4.948;2023-04-10T09:39:03;4.28;;;2.85;;
59189;SDS011;50749;51.636;4.948;2023-04-10T09:41:29;5.43;;;3.15;;
59189;SDS011;50749;51.636;4.948;2023-04-10T09:44:08;5.63;;;3.25;;
59189;SDS011;50749;51.636;4.948;2023-04-10T09:46:36;4.50;;;3.22;;
59189;SDS011;50749;51.636;4.948;2023-04-10T09:49:02;6.93;;;3.13;;
59189;SDS011;50749;51.636;4.948;2023-04-10T09:51:32;5.65;;;3.20;;
59189;SDS011;50749;51.636;4.948;2023-04-10T09:53:59;5.82;;;3.53;;
59189;SDS011;50749;51.636;4.948;2023-04-10T09:56:25;5.85;;;3.67;;
59189;SDS011;50749;51.636;4.948;2023-04-10T09:58:58;4.82;;;3.20;;
59189;SDS011;50749;51.636;4.948;2023-04-10T10:01:26;7.13;;;3.25;;
59189;SDS011;50749;51.636;4.948;2023-04-10T10:04:02;5.25;;;3.20;;
59189;SDS011;50749;51.636;4.948;2023-04-10T10:06:29;4.55;;;3.17;;
59189;SDS011;50749;51.636;4.948;2023-04-10T10:09:00;7.78;;;3.72;;
59189;SDS011;50749;51.636;4.948;2023-04-10T10:11:28;4.20;;;3.17;;
59189;SDS011;50749;51.636;4.948;2023-04-10T10:13:58;5.15;;;2.55;;
59189;SDS011;50749;51.636;4.948;2023-04-10T10:16:31;5.90;;;3.05;;
59189;SDS011;50749;51.636;4.948;2023-04-10T10:19:09;5.80;;;3.15;;
59189;SDS011;50749;51.636;4.948;2023-04-10T10:21:42;4.18;;;2.80;;
59189;SDS011;50749;51.636;4.948;2023-04-10T10:24:09;9.70;;;3.25;;
59189;SDS011;50749;51.636;4.948;2023-04-10T10:26:40;3.72;;;2.47;;
59189;SDS011;50749;51.636;4.948;2023-04-10T10:29:08;7.05;;;2.72;;
59189;SDS011;50749;51.636;4.948;2023-04-10T10:31:38;3.92;;;2.67;;
59189;SDS011;50749;51.636;4.948;2023-04-10T10:34:04;5.05;;;2.58;;
59189;SDS011;50749;51.636;4.948;2023-04-10T10:36:38;3.78;;;2.45;;
59189;SDS011;50749;51.636;4.948;2023-04-10T10:44:10;3.42;;;2.28;;
59189;SDS011;50749;51.636;4.948;2023-04-10T10:46:50;4.05;;;2.40;;
59189;SDS011;50749;51.636;4.948;2023-04-10T10:57:51;3.88;;;2.33;;
59189;SDS011;50749;51.636;4.948;2023-04-10T11:00:21;6.13;;;2.83;;
59189;SDS011;50749;51.636;4.948;2023-04-10T11:08:15;6.53;;;2.67;;
59189;SDS011;50749;51.636;4.948;2023-04-10T11:13:26;3.67;;;2.47;;
59189;SDS011;50749;51.636;4.948;2023-04-10T11:15:56;6.28;;;2.83;;
59189;SDS011;50749;51.636;4.948;2023-04-10T11:24:50;4.05;;;2.58;;
59189;SDS011;50749;51.636;4.948;2023-04-10T11:30:21;3.83;;;2.60;;
59189;SDS011;50749;51.636;4.948;2023-04-10T11:32:50;3.60;;;2.40;;
59189;SDS011;50749;51.636;4.948;2023-04-10T11:35:19;4.30;;;2.45;;
59189;SDS011;50749;51.636;4.948;2023-04-10T11:37:45;4.38;;;2.55;;
59189;SDS011;50749;51.636;4.948;2023-04-10T11:40:11;3.25;;;2.28;;
59189;SDS011;50749;51.636;4.948;2023-04-10T11:42:38;2.85;;;2.00;;
59189;SDS011;50749;51.636;4.948;2023-04-10T11:47:52;4.10;;;2.28;;
59189;SDS011;50749;51.636;4.948;2023-04-10T11:50:19;4.20;;;1.90;;
59189;SDS011;50749;51.636;4.948;2023-04-10T11:52:49;3.67;;;2.30;;
59189;SDS011;50749;51.636;4.948;2023-04-10T11:55:15;3.33;;;2.10;;
59189;SDS011;50749;51.636;4.948;2023-04-10T11:57:42;3.72;;;2.28;;
59189;SDS011;50749;51.636;4.948;2023-04-10T12:00:09;6.88;;;2.40;;
59189;SDS011;50749;51.636;4.948;2023-04-10T12:02:48;5.57;;;1.90;;
59189;SDS011;50749;51.636;4.948;2023-04-10T12:05:16;3.20;;;1.88;;
59189;SDS011;50749;51.636;4.948;2023-04-10T12:07:42;4.05;;;2.03;;
59189;SDS011;50749;51.636;4.948;2023-04-10T12:10:07;3.30;;;1.83;;
59189;SDS011;50749;51.636;4.948;2023-04-10T12:12:34;2.28;;;1.50;;
59189;SDS011;50749;51.636;4.948;2023-04-10T12:15:01;2.72;;;1.83;;
59189;SDS011;50749;51.636;4.948;2023-04-10T12:17:27;3.22;;;1.85;;
59189;SDS011;50749;51.636;4.948;2023-04-10T12:19:53;3.63;;;1.90;;
59189;SDS011;50749;51.636;4.948;2023-04-10T12:22:19;4.43;;;1.95;;
59189;SDS011;50749;51.636;4.948;2023-04-10T12:24:46;3.28;;;1.80;;
59189;SDS011;50749;51.636;4.948;2023-04-10T12:27:17;3.75;;;1.77;;
59189;SDS011;50749;51.636;4.948;2023-04-10T12:29:46;3.85;;;1.80;;
59189;SDS011;50749;51.636;4.948;2023-04-10T12:32:12;4.40;;;1.92;;
59189;SDS011;50749;51.636;4.948;2023-04-10T12:34:39;3.58;;;2.13;;
59189;SDS011;50749;51.636;4.948;2023-04-10T12:37:05;3.90;;;2.05;;
59189;SDS011;50749;51.636;4.948;2023-04-10T12:39:32;2.60;;;1.77;;
59189;SDS011;50749;51.636;4.948;2023-04-10T12:42:11;3.13;;;1.88;;
59189;SDS011;50749;51.636;4.948;2023-04-10T12:47:21;4.05;;;1.85;;
59189;SDS011;50749;51.636;4.948;2023-04-10T12:50:03;3.63;;;2.10;;
59189;SDS011;50749;51.636;4.948;2023-04-10T12:52:35;3.03;;;1.88;;
59189;SDS011;50749;51.636;4.948;2023-04-10T12:55:10;4.32;;;1.58;;
59189;SDS011;50749;51.636;4.948;2023-04-10T12:57:38;5.72;;;2.10;;
59189;SDS011;50749;51.636;4.948;2023-04-10T13:00:05;3.60;;;1.95;;
59189;SDS011;50749;51.636;4.948;2023-04-10T13:02:31;3.72;;;1.90;;
59189;SDS011;50749;51.636;4.948;2023-04-10T13:04:59;4.82;;;1.95;;
59189;SDS011;50749;51.636;4.948;2023-04-10T13:07:26;3.10;;;1.92;;
59189;SDS011;50749;51.636;4.948;2023-04-10T13:09:52;2.53;;;1.48;;
59189;SDS011;50749;51.636;4.948;2023-04-10T13:12:17;5.53;;;2.00;;
59189;SDS011;50749;51.636;4.948;2023-04-10T13:14:43;3.20;;;1.58;;
59189;SDS011;50749;51.636;4.948;2023-04-10T13:17:10;5.32;;;1.95;;
59189;SDS011;50749;51.636;4.948;2023-04-10T13:19:36;10.00;;;2.15;;
59189;SDS011;50749;51.636;4.948;2023-04-10T13:22:02;4.72;;;2.08;;
59189;SDS011;50749;51.636;4.948;2023-04-10T13:24:29;4.57;;;2.03;;
59189;SDS011;50749;51.636;4.948;2023-04-10T13:26:56;3.40;;;1.88;;
59189;SDS011;50749;51.636;4.948;2023-04-10T13:29:23;2.80;;;1.98;;
59189;SDS011;50749;51.636;4.948;2023-04-10T13:31:49;9.40;;;2.25;;
59189;SDS011;50749;51.636;4.948;2023-04-10T13:34:15;4.68;;;2.17;;
59189;SDS011;50749;51.636;4.948;2023-04-10T13:36:41;4.60;;;1.83;;
59189;SDS011;50749;51.636;4.948;2023-04-10T13:39:07;7.45;;;1.70;;
59189;SDS011;50749;51.636;4.948;2023-04-10T13:41:33;2.97;;;1.80;;
59189;SDS011;50749;51.636;4.948;2023-04-10T13:43:58;4.88;;;1.90;;
59189;SDS011;50749;51.636;4.948;2023-04-10T13:46:24;12.23;;;2.03;;
59189;SDS011;50749;51.636;4.948;2023-04-10T13:48:50;4.25;;;1.70;;
59189;SDS011;50749;51.636;4.948;2023-04-10T13:51:16;3.03;;;1.60;;
59189;SDS011;50749;51.636;4.948;2023-04-10T13:53:42;4.20;;;2.03;;
59189;SDS011;50749;51.636;4.948;2023-04-10T13:56:08;4.30;;;2.00;;
59189;SDS011;50749;51.636;4.948;2023-04-10T13:58:34;4.82;;;1.85;;
59189;SDS011;50749;51.636;4.948;2023-04-10T14:01:00;2.80;;;1.67;;
59189;SDS011;50749;51.636;4.948;2023-04-10T14:03:26;3.72;;;1.80;;
59189;SDS011;50749;51.636;4.948;2023-04-10T14:05:52;3.83;;;2.25;;
59189;SDS011;50749;51.636;4.948;2023-04-10T14:08:18;4.20;;;1.88;;
59189;SDS011;50749;51.636;4.948;2023-04-10T14:10:45;6.57;;;1.73;;
59189;SDS011;50749;51.636;4.948;2023-04-10T14:13:17;12.13;;;2.53;;
59189;SDS011;50749;51.636;4.948;2023-04-10T14:15:43;5.72;;;1.88;;
59189;SDS011;50749;51.636;4.948;2023-04-10T14:18:09;3.17;;;1.70;;
59189;SDS011;50749;51.636;4.948;2023-04-10T14:20:35;3.58;;;1.67;;
59189;SDS011;50749;51.636;4.948;2023-04-10T14:23:01;2.47;;;1.33;;
59189;SDS011;50749;51.636;4.948;2023-04-10T14:25:27;2.72;;;1.30;;
59189;SDS011;50749;51.636;4.948;2023-04-10T14:27:52;6.00;;;1.70;;
59189;SDS011;50749;51.636;4.948;2023-04-10T14:30:18;3.20;;;1.65;;
59189;SDS011;50749;51.636;4.948;2023-04-10T14:32:44;3.20;;;1.67;;
59189;SDS011;50749;51.636;4.948;2023-04-10T14:35:10;3.35;;;1.60;;
59189;SDS011;50749;51.636;4.948;2023-04-10T14:37:37;2.58;;;1.50;;
59189;SDS011;50749;51.636;4.948;2023-04-10T14:40:03;5.50;;;1.45;;
59189;SDS011;50749;51.636;4.948;2023-04-10T14:42:29;2.92;;;2.05;;
59189;SDS011;50749;51.636;4.948;2023-04-10T14:44:55;4.93;;;1.90;;
59189;SDS011;50749;51.636;4.948;2023-04-10T14:47:23;4.20;;;1.90;;
59189;SDS011;50749;51.636;4.948;2023-04-10T14:49:49;3.00;;;1.75;;
59189;SDS011;50749;51.636;4.948;2023-04-10T14:52:15;2.70;;;1.45;;
59189;SDS011;50749;51.636;4.948;2023-04-10T14:54:41;4.70;;;1.95;;
59189;SDS011;50749;51.636;4.948;2023-04-10T14:57:06;5.07;;;1.55;;
59189;SDS011;50749;51.636;4.948;2023-04-10T14:59:32;5.63;;;1.77;;
59189;SDS011;50749;51.636;4.948;2023-04-10T15:01:58;3.40;;;1.48;;
59189;SDS011;50749;51.636;4.948;2023-04-10T15:04:24;3.35;;;1.60;;
59189;SDS011;50749;51.636;4.948;2023-04-10T15:06:50;5.60;;;1.48;;
59189;SDS011;50749;51.636;4.948;2023-04-10T15:09:16;3.30;;;1.88;;
59189;SDS011;50749;51.636;4.948;2023-04-10T15:11:42;3.83;;;1.42;;
59189;SDS011;50749;51.636;4.948;2023-04-10T15:14:08;2.47;;;1.38;;
59189;SDS011;50749;51.636;4.948;2023-04-10T15:16:36;4.25;;;1.70;;
59189;SDS011;50749;51.636;4.948;2023-04-10T15:19:02;1.92;;;1.27;;
59189;SDS011;50749;51.636;4.948;2023-04-10T15:21:27;3.75;;;2.00;;
59189;SDS011;50749;51.636;4.948;2023-04-10T15:23:53;3.08;;;1.10;;
59189;SDS011;50749;51.636;4.948;2023-04-10T15:26:19;1.98;;;1.17;;
59189;SDS011;50749;51.636;4.948;2023-04-10T15:28:47;3.13;;;1.67;;
59189;SDS011;50749;51.636;4.948;2023-04-10T15:31:12;3.55;;;1.35;;
59189;SDS011;50749;51.636;4.948;2023-04-10T15:33:38;3.85;;;2.13;;
59189;SDS011;50749;51.636;4.948;2023-04-10T15:36:05;2.53;;;1.40;;
59189;SDS011;50749;51.636;4.948;2023-04-10T15:38:34;4.45;;;1.60;;
59189;SDS011;50749;51.636;4.948;2023-04-10T15:41:00;2.47;;;1.25;;
59189;SDS011;50749;51.636;4.948;2023-04-10T15:43:35;2.28;;;1.23;;